sensor_id;sensor_type;location;lat;lon;timestamp;pressure;altitude;pressure_sealevel;temperature;humidity
61472;BME280;47337;54.068;12.114;2023-05-23T00:01:42;100705.53;;;15.91;74.58
61472;BME280;47337;54.068;12.114;2023-05-23T00:04:09;100711.47;;;16.11;74.66
61472;BME280;47337;54.068;12.114;2023-05-23T00:06:41;100693.03;;;16.03;74.46
61472;BME280;47337;54.068;12.114;2023-05-23T00:09:12;100698.31;;;16.03;74.56
61472;BME280;47337;54.068;12.114;2023-05-23T00:11:40;100693.94;;;16.01;75.00
61472;BME280;47337;54.068;12.114;2023-05-23T00:14:13;100702.91;;;15.89;75.70
61472;BME280;47337;54.068;12.114;2023-05-23T00:16:42;100721.50;;;15.86;76.03
61472;BME280;47337;54.068;12.114;2023-05-23T00:19:11;100710.03;;;15.87;75.89
61472;BME280;47337;54.068;12.114;2023-05-23T00:21:39;100708.19;;;15.92;75.99
61472;BME280;47337;54.068;12.114;2023-05-23T00:24:05;100697.44;;;16.04;75.90
61472;BME280;47337;54.068;12.114;2023-05-23T00:26:34;100673.56;;;16.07;75.43
61472;BME280;47337;54.068;12.114;2023-05-23T00:28:59;100677.09;;;16.08;75.41
61472;BME280;47337;54.068;12.114;2023-05-23T00:31:25;100684.16;;;16.09;75.12
61472;BME280;47337;54.068;12.114;2023-05-23T00:33:50;100683.22;;;16.11;75.35
61472;BME280;47337;54.068;12.114;2023-05-23T00:36:18;100669.03;;;16.16;74.83
61472;BME280;47337;54.068;12.114;2023-05-23T00:38:43;100675.25;;;16.11;75.79
61472;BME280;47337;54.068;12.114;2023-05-23T00:41:14;100677.75;;;16.24;75.36
61472;BME280;47337;54.068;12.114;2023-05-23T00:43:40;100665.53;;;16.14;75.24
61472;BME280;47337;54.068;12.114;2023-05-23T00:46:06;100668.22;;;16.10;75.36
61472;BME280;47337;54.068;12.114;2023-05-23T00:48:32;100660.88;;;16.31;74.64
61472;BME280;47337;54.068;12.114;2023-05-23T00:50:58;100656.63;;;16.21;74.76
61472;BME280;47337;54.068;12.114;2023-05-23T00:53:23;100658.41;;;16.19;74.90
61472;BME280;47337;54.068;12.114;2023-05-23T00:55:49;100665.50;;;16.17;75.03
61472;BME280;47337;54.068;12.114;2023-05-23T00:58:15;100663.75;;;16.14;75.10
61472;BME280;47337;54.068;12.114;2023-05-23T01:00:44;100666.25;;;16.25;75.19
61472;BME280;47337;54.068;12.114;2023-05-23T01:03:10;100666.34;;;16.19;75.13
61472;BME280;47337;54.068;12.114;2023-05-23T01:05:42;100660.31;;;16.09;75.13
61472;BME280;47337;54.068;12.114;2023-05-23T01:08:08;100654.16;;;16.05;74.75
61472;BME280;47337;54.068;12.114;2023-05-23T01:10:33;100664.66;;;16.11;74.89
61472;BME280;47337;54.068;12.114;2023-05-23T01:13:23;100679.56;;;16.20;75.54
61472;BME280;47337;54.068;12.114;2023-05-23T01:18:33;100656.78;;;16.08;75.37
61472;BME280;47337;54.068;12.114;2023-05-23T01:21:16;100663.09;;;15.98;76.05
61472;BME280;47337;54.068;12.114;2023-05-23T01:28:46;100693.91;;;16.04;78.21
61472;BME280;47337;54.068;12.114;2023-05-23T01:31:15;100679.69;;;16.11;78.02
61472;BME280;47337;54.068;12.114;2023-05-23T01:33:42;100687.53;;;16.19;78.34
61472;BME280;47337;54.068;12.114;2023-05-23T01:36:08;100715.81;;;16.17;79.20
61472;BME280;47337;54.068;12.114;2023-05-23T01:38:39;100690.19;;;16.19;79.26
61472;BME280;47337;54.068;12.114;2023-05-23T01:41:04;100676.13;;;16.14;78.91
61472;BME280;47337;54.068;12.114;2023-05-23T01:43:30;100693.88;;;16.08;79.51
61472;BME280;47337;54.068;12.114;2023-05-23T01:45:56;100729.31;;;15.97;81.56
61472;BME280;47337;54.068;12.114;2023-05-23T01:48:23;100764.00;;;15.74;84.09
61472;BME280;47337;54.068;12.114;2023-05-23T01:50:50;100785.31;;;15.60;86.32
61472;BME280;47337;54.068;12.114;2023-05-23T01:53:19;100796.78;;;15.61;88.01
61472;BME280;47337;54.068;12.114;2023-05-23T01:55:47;100782.72;;;15.53;88.97
61472;BME280;47337;54.068;12.114;2023-05-23T01:58:13;100780.16;;;15.44;90.54
61472;BME280;47337;54.068;12.114;2023-05-23T02:00:39;100781.03;;;15.46;92.48
61472;BME280;47337;54.068;12.114;2023-05-23T02:03:07;100779.31;;;15.38;93.07
61472;BME280;47337;54.068;12.114;2023-05-23T02:05:32;100764.41;;;15.30;93.67
61472;BME280;47337;54.068;12.114;2023-05-23T02:08:00;100765.38;;;15.23;95.14
61472;BME280;47337;54.068;12.114;2023-05-23T02:10:25;100763.63;;;15.19;96.26
61472;BME280;47337;54.068;12.114;2023-05-23T02:12:51;100761.00;;;15.17;97.21
61472;BME280;47337;54.068;12.114;2023-05-23T02:15:16;100761.94;;;15.13;98.10
61472;BME280;47337;54.068;12.114;2023-05-23T02:17:42;100762.75;;;15.17;98.98
61472;BME280;47337;54.068;12.114;2023-05-23T02:20:08;100763.69;;;15.13;99.81
61472;BME280;47337;54.068;12.114;2023-05-23T02:22:37;100761.94;;;15.09;100.00
61472;BME280;47337;54.068;12.114;2023-05-23T02:25:03;100757.53;;;15.09;100.00
61472;BME280;47337;54.068;12.114;2023-05-23T02:27:28;100764.53;;;15.16;100.00
61472;BME280;47337;54.068;12.114;2023-05-23T02:29:54;100762.81;;;15.14;100.00
61472;BME280;47337;54.068;12.114;2023-05-23T02:32:22;100749.50;;;15.21;100.00
61472;BME280;47337;54.068;12.114;2023-05-23T02:34:47;100744.22;;;15.18;100.00
61472;BME280;47337;54.068;12.114;2023-05-23T02:37:14;100731.94;;;15.14;100.00
61472;BME280;47337;54.068;12.114;2023-05-23T02:39:41;100735.47;;;15.13;100.00
61472;BME280;47337;54.068;12.114;2023-05-23T02:42:06;100733.66;;;15.18;100.00
61472;BME280;47337;54.068;12.114;2023-05-23T02:44:34;100719.44;;;15.31;100.00
61472;BME280;47337;54.068;12.114;2023-05-23T02:47:02;100704.31;;;15.44;100.00
61472;BME280;47337;54.068;12.114;2023-05-23T02:49:28;100685.72;;;15.49;100.00
61472;BME280;47337;54.068;12.114;2023-05-23T02:51:55;100661.88;;;15.53;98.96
61472;BME280;47337;54.068;12.114;2023-05-23T02:54:21;100653.06;;;15.51;98.21
61472;BME280;47337;54.068;12.114;2023-05-23T02:56:46;100647.81;;;15.48;97.53
61472;BME280;47337;54.068;12.114;2023-05-23T02:59:12;100666.44;;;15.37;98.15
61472;BME280;47337;54.068;12.114;2023-05-23T03:01:39;100667.41;;;15.32;98.48
61472;BME280;47337;54.068;12.114;2023-05-23T03:04:05;100692.13;;;15.26;99.90
61472;BME280;47337;54.068;12.114;2023-05-23T03:06:30;100702.78;;;15.20;100.00
61472;BME280;47337;54.068;12.114;2023-05-23T03:09:00;100693.94;;;15.24;100.00
61472;BME280;47337;54.068;12.114;2023-05-23T03:11:27;100701.09;;;15.15;100.00
61472;BME280;47337;54.068;12.114;2023-05-23T03:13:54;100703.69;;;15.16;100.00
61472;BME280;47337;54.068;12.114;2023-05-23T03:16:22;100702.69;;;15.29;100.00
61472;BME280;47337;54.068;12.114;2023-05-23T03:18:50;100717.84;;;15.14;100.00
61472;BME280;47337;54.068;12.114;2023-05-23T03:21:15;100719.63;;;15.12;100.00
61472;BME280;47337;54.068;12.114;2023-05-23T03:23:41;100728.47;;;15.08;100.00
61472;BME280;47337;54.068;12.114;2023-05-23T03:26:06;100732.94;;;15.01;100.00
61472;BME280;47337;54.068;12.114;2023-05-23T03:28:32;100731.19;;;14.97;100.00
61472;BME280;47337;54.068;12.114;2023-05-23T03:30:57;100734.63;;;15.10;100.00
61472;BME280;47337;54.068;12.114;2023-05-23T03:33:23;100730.19;;;15.12;100.00
61472;BME280;47337;54.068;12.114;2023-05-23T03:35:51;100732.75;;;15.22;100.00
61472;BME280;47337;54.068;12.114;2023-05-23T03:38:17;100729.31;;;15.11;100.00
61472;BME280;47337;54.068;12.114;2023-05-23T03:40:42;100727.44;;;15.25;100.00
61472;BME280;47337;54.068;12.114;2023-05-23T03:43:08;100712.47;;;15.21;100.00
61472;BME280;47337;54.068;12.114;2023-05-23T03:45:33;100705.34;;;15.26;100.00
61472;BME280;47337;54.068;12.114;2023-05-23T03:47:59;100692.97;;;15.33;100.00
61472;BME280;47337;54.068;12.114;2023-05-23T03:50:25;100684.16;;;15.34;100.00
61472;BME280;47337;54.068;12.114;2023-05-23T03:52:51;100683.38;;;15.21;100.00
61472;BME280;47337;54.068;12.114;2023-05-23T03:55:16;100697.47;;;15.23;100.00
61472;BME280;47337;54.068;12.114;2023-05-23T03:57:45;100695.75;;;15.19;100.00
61472;BME280;47337;54.068;12.114;2023-05-23T04:00:14;100708.09;;;15.19;100.00
61472;BME280;47337;54.068;12.114;2023-05-23T04:02:39;100715.13;;;15.21;100.00
61472;BME280;47337;54.068;12.114;2023-05-23T04:05:05;100715.97;;;15.25;100.00
61472;BME280;47337;54.068;12.114;2023-05-23T04:07:32;100714.16;;;15.30;100.00
61472;BME280;47337;54.068;12.114;2023-05-23T04:09:59;100707.09;;;15.32;100.00
61472;BME280;47337;54.068;12.114;2023-05-23T04:12:25;100691.06;;;15.46;100.00
61472;BME280;47337;54.068;12.114;2023-05-23T04:14:50;100691.91;;;15.49;100.00
61472;BME280;47337;54.068;12.114;2023-05-23T04:17:16;100681.28;;;15.52;100.00
61472;BME280;47337;54.068;12.114;2023-05-23T04:19:45;100672.41;;;15.58;100.00
61472;BME280;47337;54.068;12.114;2023-05-23T04:22:12;100653.75;;;15.68;100.00
61472;BME280;47337;54.068;12.114;2023-05-23T04:24:40;100643.97;;;15.78;100.00
61472;BME280;47337;54.068;12.114;2023-05-23T04:27:08;100633.28;;;15.84;99.69
61472;BME280;47337;54.068;12.114;2023-05-23T04:29:34;100645.47;;;15.97;99.56
61472;BME280;47337;54.068;12.114;2023-05-23T04:32:01;100631.22;;;16.04;98.78
61472;BME280;47337;54.068;12.114;2023-05-23T04:34:26;100634.78;;;16.03;98.61
61472;BME280;47337;54.068;12.114;2023-05-23T04:36:52;100617.97;;;16.06;97.92
61472;BME280;47337;54.068;12.114;2023-05-23T04:39:18;100616.09;;;16.13;97.41
61472;BME280;47337;54.068;12.114;2023-05-23T04:41:44;100617.13;;;16.02;97.39
61472;BME280;47337;54.068;12.114;2023-05-23T04:44:10;100615.34;;;16.04;97.34
61472;BME280;47337;54.068;12.114;2023-05-23T04:46:35;100609.91;;;16.14;96.25
61472;BME280;47337;54.068;12.114;2023-05-23T04:49:01;100599.34;;;16.10;95.50
61472;BME280;47337;54.068;12.114;2023-05-23T04:51:28;100581.59;;;16.19;94.58
61472;BME280;47337;54.068;12.114;2023-05-23T04:53:53;100584.09;;;16.28;94.25
61472;BME280;47337;54.068;12.114;2023-05-23T04:56:19;100582.31;;;16.28;94.13
61472;BME280;47337;54.068;12.114;2023-05-23T04:58:46;100597.22;;;16.34;94.28
61472;BME280;47337;54.068;12.114;2023-05-23T05:01:11;100598.03;;;16.39;94.19
61472;BME280;47337;54.068;12.114;2023-05-23T05:03:38;100610.38;;;16.41;95.23
61472;BME280;47337;54.068;12.114;2023-05-23T05:06:06;100609.53;;;16.38;95.23
61472;BME280;47337;54.068;12.114;2023-05-23T05:08:31;100600.66;;;16.40;94.47
61472;BME280;47337;54.068;12.114;2023-05-23T05:10:57;100600.66;;;16.40;94.14
61472;BME280;47337;54.068;12.114;2023-05-23T05:13:24;100603.97;;;16.53;93.42
61472;BME280;47337;54.068;12.114;2023-05-23T05:15:50;100603.19;;;16.48;93.48
61472;BME280;47337;54.068;12.114;2023-05-23T05:18:16;100611.03;;;16.54;93.97
61472;BME280;47337;54.068;12.114;2023-05-23T05:20:42;100624.97;;;16.68;94.68
61472;BME280;47337;54.068;12.114;2023-05-23T05:23:07;100609.19;;;16.59;94.86
61472;BME280;47337;54.068;12.114;2023-05-23T05:25:34;100610.97;;;16.57;94.95
61472;BME280;47337;54.068;12.114;2023-05-23T05:28:01;100603.88;;;16.62;94.27
61472;BME280;47337;54.068;12.114;2023-05-23T05:30:32;100600.09;;;16.75;93.87
61472;BME280;47337;54.068;12.114;2023-05-23T05:33:03;100600.72;;;16.90;93.18
61472;BME280;47337;54.068;12.114;2023-05-23T05:35:32;100593.94;;;17.21;92.68
61472;BME280;47337;54.068;12.114;2023-05-23T05:37:59;100569.06;;;17.27;91.48
61472;BME280;47337;54.068;12.114;2023-05-23T05:40:24;100565.47;;;17.28;90.92
61472;BME280;47337;54.068;12.114;2023-05-23T05:42:50;100562.78;;;17.31;91.05
61472;BME280;47337;54.068;12.114;2023-05-23T05:45:16;100564.22;;;17.47;90.23
61472;BME280;47337;54.068;12.114;2023-05-23T05:47:42;100555.84;;;17.67;89.72
61472;BME280;47337;54.068;12.114;2023-05-23T05:50:07;100550.16;;;17.82;88.83
61472;BME280;47337;54.068;12.114;2023-05-23T05:52:34;100536.75;;;17.89;88.12
61472;BME280;47337;54.068;12.114;2023-05-23T05:55:06;100528.19;;;18.12;87.14
61472;BME280;47337;54.068;12.114;2023-05-23T05:57:32;100520.44;;;18.03;86.71
61472;BME280;47337;54.068;12.114;2023-05-23T05:59:58;100529.94;;;18.13;87.10
61472;BME280;47337;54.068;12.114;2023-05-23T06:02:23;100540.34;;;18.22;87.29
61472;BME280;47337;54.068;12.114;2023-05-23T06:04:49;100536.78;;;18.23;87.27
61472;BME280;47337;54.068;12.114;2023-05-23T06:07:14;100536.72;;;18.26;87.63
61472;BME280;47337;54.068;12.114;2023-05-23T06:09:40;100522.19;;;18.04;87.44
61472;BME280;47337;54.068;12.114;2023-05-23T06:12:05;100537.81;;;18.18;87.90
61472;BME280;47337;54.068;12.114;2023-05-23T06:14:31;100546.75;;;18.14;87.98
61472;BME280;47337;54.068;12.114;2023-05-23T06:16:56;100555.22;;;18.31;88.26
61472;BME280;47337;54.068;12.114;2023-05-23T06:19:22;100546.97;;;18.42;87.71
61472;BME280;47337;54.068;12.114;2023-05-23T06:21:51;100544.75;;;18.59;87.24
61472;BME280;47337;54.068;12.114;2023-05-23T06:24:19;100524.81;;;18.75;86.37
61472;BME280;47337;54.068;12.114;2023-05-23T06:26:44;100520.84;;;18.91;86.00
61472;BME280;47337;54.068;12.114;2023-05-23T06:29:12;100513.50;;;18.99;85.74
61472;BME280;47337;54.068;12.114;2023-05-23T06:31:37;100525.31;;;18.89;85.92
61472;BME280;47337;54.068;12.114;2023-05-23T06:34:02;100526.16;;;18.91;86.29
61472;BME280;47337;54.068;12.114;2023-05-23T06:36:30;100531.41;;;18.94;86.37
61472;BME280;47337;54.068;12.114;2023-05-23T06:38:56;100541.16;;;19.25;86.27
61472;BME280;47337;54.068;12.114;2023-05-23T06:41:23;100524.69;;;19.71;84.85
61472;BME280;47337;54.068;12.114;2023-05-23T06:43:49;100514.75;;;20.04;83.85
61472;BME280;47337;54.068;12.114;2023-05-23T06:46:14;100481.00;;;20.31;82.58
61472;BME280;47337;54.068;12.114;2023-05-23T06:48:39;100476.94;;;20.45;82.11
61472;BME280;47337;54.068;12.114;2023-05-23T06:51:05;100453.47;;;20.80;81.04
61472;BME280;47337;54.068;12.114;2023-05-23T06:53:30;100439.44;;;20.75;79.88
61472;BME280;47337;54.068;12.114;2023-05-23T06:55:56;100434.16;;;20.73;79.39
61472;BME280;47337;54.068;12.114;2023-05-23T06:58:21;100433.00;;;20.80;78.73
61472;BME280;47337;54.068;12.114;2023-05-23T07:00:49;100439.06;;;20.61;79.44
61472;BME280;47337;54.068;12.114;2023-05-23T07:03:14;100453.31;;;20.60;80.06
61472;BME280;47337;54.068;12.114;2023-05-23T07:05:40;100458.81;;;21.03;80.06
61472;BME280;47337;54.068;12.114;2023-05-23T07:08:06;100453.13;;;21.12;79.51
61472;BME280;47337;54.068;12.114;2023-05-23T07:10:34;100467.06;;;20.97;79.92
61472;BME280;47337;54.068;12.114;2023-05-23T07:13:00;100469.59;;;21.00;80.09
61472;BME280;47337;54.068;12.114;2023-05-23T07:15:25;100474.50;;;21.12;80.02
61472;BME280;47337;54.068;12.114;2023-05-23T07:17:51;100473.97;;;21.03;79.74
61472;BME280;47337;54.068;12.114;2023-05-23T07:20:16;100455.34;;;21.01;79.36
61472;BME280;47337;54.068;12.114;2023-05-23T07:22:42;100476.13;;;21.16;79.70
61472;BME280;47337;54.068;12.114;2023-05-23T07:25:12;100473.81;;;21.31;79.08
61472;BME280;47337;54.068;12.114;2023-05-23T07:27:40;100470.09;;;21.35;78.97
61472;BME280;47337;54.068;12.114;2023-05-23T07:30:06;100490.91;;;21.50;79.70
61472;BME280;47337;54.068;12.114;2023-05-23T07:32:33;100486.84;;;21.40;79.90
61472;BME280;47337;54.068;12.114;2023-05-23T07:34:58;100487.22;;;21.74;79.46
61472;BME280;47337;54.068;12.114;2023-05-23T07:37:24;100474.69;;;21.98;78.54
61472;BME280;47337;54.068;12.114;2023-05-23T07:39:52;100469.38;;;21.97;78.37
61472;BME280;47337;54.068;12.114;2023-05-23T07:42:17;100477.53;;;21.93;78.91
61472;BME280;47337;54.068;12.114;2023-05-23T07:44:42;100474.25;;;22.09;78.56
61472;BME280;47337;54.068;12.114;2023-05-23T07:47:08;100451.94;;;22.30;77.25
61472;BME280;47337;54.068;12.114;2023-05-23T07:49:33;100445.13;;;22.23;77.05
61472;BME280;47337;54.068;12.114;2023-05-23T07:52:00;100430.13;;;21.99;76.27
61472;BME280;47337;54.068;12.114;2023-05-23T07:54:25;100447.28;;;21.49;77.11
61472;BME280;47337;54.068;12.114;2023-05-23T07:56:52;100467.91;;;21.23;78.28
61472;BME280;47337;54.068;12.114;2023-05-23T07:59:18;100507.34;;;21.14;79.39
61472;BME280;47337;54.068;12.114;2023-05-23T08:01:46;100531.84;;;21.27;79.95
61472;BME280;47337;54.068;12.114;2023-05-23T08:04:15;100540.41;;;21.10;80.49
61472;BME280;47337;54.068;12.114;2023-05-23T08:06:45;100561.25;;;20.76;82.07
61472;BME280;47337;54.068;12.114;2023-05-23T08:09:13;100586.84;;;20.01;83.99
61472;BME280;47337;54.068;12.114;2023-05-23T08:11:41;100626.72;;;19.74;86.47
61472;BME280;47337;54.068;12.114;2023-05-23T08:14:09;100654.28;;;19.73;88.46
61472;BME280;47337;54.068;12.114;2023-05-23T08:16:34;100666.41;;;19.84;89.77
61472;BME280;47337;54.068;12.114;2023-05-23T08:19:01;100673.94;;;19.69;90.92
61472;BME280;47337;54.068;12.114;2023-05-23T08:21:27;100691.13;;;19.89;92.17
61472;BME280;47337;54.068;12.114;2023-05-23T08:23:52;100696.09;;;20.01;92.42
61472;BME280;47337;54.068;12.114;2023-05-23T08:26:18;100688.81;;;19.77;92.67
61472;BME280;47337;54.068;12.114;2023-05-23T08:28:43;100685.38;;;20.02;92.55
61472;BME280;47337;54.068;12.114;2023-05-23T08:31:09;100676.41;;;20.34;91.89
61472;BME280;47337;54.068;12.114;2023-05-23T08:33:34;100654.66;;;20.20;91.11
61472;BME280;47337;54.068;12.114;2023-05-23T08:35:59;100667.13;;;20.75;91.05
61472;BME280;47337;54.068;12.114;2023-05-23T08:38:25;100645.78;;;20.75;89.43
61472;BME280;47337;54.068;12.114;2023-05-23T08:40:55;100635.56;;;20.62;88.69
61472;BME280;47337;54.068;12.114;2023-05-23T08:43:20;100662.63;;;20.50;89.39
61472;BME280;47337;54.068;12.114;2023-05-23T08:45:48;100677.03;;;20.44;90.30
61472;BME280;47337;54.068;12.114;2023-05-23T08:48:18;100680.00;;;20.04;91.55
61472;BME280;47337;54.068;12.114;2023-05-23T08:50:47;100695.63;;;19.87;92.91
61472;BME280;47337;54.068;12.114;2023-05-23T08:53:19;100715.88;;;19.61;94.68
61472;BME280;47337;54.068;12.114;2023-05-23T08:55:50;100715.28;;;19.83;94.99
61472;BME280;47337;54.068;12.114;2023-05-23T08:58:18;100720.59;;;19.83;95.85
61472;BME280;47337;54.068;12.114;2023-05-23T09:00:46;100721.47;;;20.14;95.24
61472;BME280;47337;54.068;12.114;2023-05-23T09:03:15;100713.28;;;20.50;95.07
61472;BME280;47337;54.068;12.114;2023-05-23T09:05:43;100726.69;;;20.48;95.24
61472;BME280;47337;54.068;12.114;2023-05-23T09:08:11;100704.28;;;20.54;94.40
61472;BME280;47337;54.068;12.114;2023-05-23T09:10:37;100706.34;;;20.72;93.93
61472;BME280;47337;54.068;12.114;2023-05-23T09:13:04;100679.00;;;20.08;93.51
61472;BME280;47337;54.068;12.114;2023-05-23T09:15:29;100714.00;;;20.25;95.16
61472;BME280;47337;54.068;12.114;2023-05-23T09:18:02;100691.63;;;20.31;93.19
61472;BME280;47337;54.068;12.114;2023-05-23T09:20:28;100683.41;;;20.66;91.92
61472;BME280;47337;54.068;12.114;2023-05-23T09:22:54;100642.03;;;20.55;88.90
61472;BME280;47337;54.068;12.114;2023-05-23T09:25:24;100599.44;;;20.52;86.37
61472;BME280;47337;54.068;12.114;2023-05-23T09:27:51;100595.81;;;20.25;85.27
61472;BME280;47337;54.068;12.114;2023-05-23T09:30:18;100573.41;;;20.58;83.19
61472;BME280;47337;54.068;12.114;2023-05-23T09:32:58;100576.25;;;20.54;82.79
61472;BME280;47337;54.068;12.114;2023-05-23T09:35:27;100572.56;;;20.30;82.90
61472;BME280;47337;54.068;12.114;2023-05-23T09:37:52;100594.38;;;20.15;83.48
61472;BME280;47337;54.068;12.114;2023-05-23T09:40:20;100595.47;;;19.50;83.01
61472;BME280;47337;54.068;12.114;2023-05-23T09:42:46;100592.03;;;19.45;83.00
61472;BME280;47337;54.068;12.114;2023-05-23T09:45:13;100593.03;;;18.78;84.36
61472;BME280;47337;54.068;12.114;2023-05-23T09:47:38;100624.84;;;18.45;85.84
61472;BME280;47337;54.068;12.114;2023-05-23T09:50:04;100645.63;;;19.00;85.96
61472;BME280;47337;54.068;12.114;2023-05-23T09:52:37;100614.25;;;19.13;84.80
61472;BME280;47337;54.068;12.114;2023-05-23T09:55:03;100604.72;;;19.37;83.78
61472;BME280;47337;54.068;12.114;2023-05-23T09:57:29;100572.91;;;19.00;81.89
61472;BME280;47337;54.068;12.114;2023-05-23T09:59:57;100569.22;;;18.73;81.77
61472;BME280;47337;54.068;12.114;2023-05-23T10:08:00;100568.97;;;18.82;80.78
61472;BME280;47337;54.068;12.114;2023-05-23T10:10:32;100539.28;;;18.65;79.48
61472;BME280;47337;54.068;12.114;2023-05-23T10:13:04;100559.56;;;18.69;79.53
61472;BME280;47337;54.068;12.114;2023-05-23T10:15:37;100569.50;;;17.90;81.07
61472;BME280;47337;54.068;12.114;2023-05-23T10:18:17;100603.34;;;18.19;81.95
61472;BME280;47337;54.068;12.114;2023-05-23T10:20:50;100593.19;;;18.35;81.33
61472;BME280;47337;54.068;12.114;2023-05-23T10:23:18;100583.44;;;18.72;80.85
61472;BME280;47337;54.068;12.114;2023-05-23T10:25:44;100581.69;;;17.99;81.45
61472;BME280;47337;54.068;12.114;2023-05-23T10:28:12;100618.13;;;17.90;82.73
61472;BME280;47337;54.068;12.114;2023-05-23T10:30:40;100634.16;;;17.87;83.61
61472;BME280;47337;54.068;12.114;2023-05-23T10:33:06;100639.38;;;17.90;83.69
61472;BME280;47337;54.068;12.114;2023-05-23T10:40:47;100644.00;;;17.38;84.52
61472;BME280;47337;54.068;12.114;2023-05-23T10:43:28;100652.50;;;17.10;84.85
61472;BME280;47337;54.068;12.114;2023-05-23T10:45:57;100689.31;;;17.27;85.53
61472;BME280;47337;54.068;12.114;2023-05-23T10:48:42;100672.44;;;17.31;85.34
61472;BME280;47337;54.068;12.114;2023-05-23T10:51:10;100674.22;;;16.81;86.41
61472;BME280;47337;54.068;12.114;2023-05-23T10:56:05;100712.25;;;16.80;87.35
61472;BME280;47337;54.068;12.114;2023-05-23T10:58:36;100704.09;;;16.93;87.75
61472;BME280;47337;54.068;12.114;2023-05-23T11:01:07;100709.69;;;16.74;87.13
61472;BME280;47337;54.068;12.114;2023-05-23T11:06:43;100734.66;;;16.58;88.79
61472;BME280;47337;54.068;12.114;2023-05-23T11:09:21;100736.25;;;16.71;88.79
61472;BME280;47337;54.068;12.114;2023-05-23T11:14:18;100737.69;;;16.94;88.68
61472;BME280;47337;54.068;12.114;2023-05-23T11:16:44;100746.84;;;16.73;88.26
61472;BME280;47337;54.068;12.114;2023-05-23T11:21:59;100757.81;;;16.44;89.71
61472;BME280;47337;54.068;12.114;2023-05-23T11:24:51;100783.94;;;16.05;91.54
61472;BME280;47337;54.068;12.114;2023-05-23T11:30:11;100836.97;;;15.99;95.36
61472;BME280;47337;54.068;12.114;2023-05-23T11:32:41;100846.72;;;15.97;97.17
61472;BME280;47337;54.068;12.114;2023-05-23T11:35:08;100862.53;;;16.00;98.89
61472;BME280;47337;54.068;12.114;2023-05-23T11:37:39;100875.66;;;16.11;100.00
61472;BME280;47337;54.068;12.114;2023-05-23T11:40:24;100894.38;;;15.96;100.00
61472;BME280;47337;54.068;12.114;2023-05-23T11:42:52;100913.72;;;16.02;100.00
61472;BME280;47337;54.068;12.114;2023-05-23T11:45:19;100910.84;;;16.27;100.00
61472;BME280;47337;54.068;12.114;2023-05-23T11:47:47;100916.22;;;16.19;100.00
61472;BME280;47337;54.068;12.114;2023-05-23T11:50:12;100926.50;;;16.48;100.00
61472;BME280;47337;54.068;12.114;2023-05-23T11:52:37;100919.59;;;16.33;100.00
61472;BME280;47337;54.068;12.114;2023-05-23T11:55:03;100924.06;;;16.30;100.00
61472;BME280;47337;54.068;12.114;2023-05-23T11:57:30;100922.22;;;16.36;100.00
61472;BME280;47337;54.068;12.114;2023-05-23T11:59:56;100913.50;;;16.24;100.00
61472;BME280;47337;54.068;12.114;2023-05-23T12:02:21;100943.81;;;15.97;100.00
61472;BME280;47337;54.068;12.114;2023-05-23T12:04:49;100928.84;;;15.90;100.00
61472;BME280;47337;54.068;12.114;2023-05-23T12:07:21;100943.63;;;16.14;100.00
61472;BME280;47337;54.068;12.114;2023-05-23T12:09:46;100951.13;;;15.66;100.00
61472;BME280;47337;54.068;12.114;2023-05-23T12:12:14;100946.78;;;15.50;100.00
61472;BME280;47337;54.068;12.114;2023-05-23T12:14:43;100956.56;;;15.38;100.00
61472;BME280;47337;54.068;12.114;2023-05-23T12:17:11;100981.31;;;15.28;100.00
61472;BME280;47337;54.068;12.114;2023-05-23T12:19:44;100962.84;;;15.25;100.00
61472;BME280;47337;54.068;12.114;2023-05-23T12:22:10;100968.16;;;15.19;100.00
61472;BME280;47337;54.068;12.114;2023-05-23T12:24:44;100971.69;;;15.18;100.00
61472;BME280;47337;54.068;12.114;2023-05-23T12:27:14;100957.72;;;14.93;100.00
61472;BME280;47337;54.068;12.114;2023-05-23T12:29:41;100970.97;;;14.74;100.00
61472;BME280;47337;54.068;12.114;2023-05-23T12:32:07;100982.50;;;14.60;100.00
61472;BME280;47337;54.068;12.114;2023-05-23T12:34:32;100985.16;;;14.48;100.00
61472;BME280;47337;54.068;12.114;2023-05-23T12:37:00;100999.25;;;14.44;100.00
61472;BME280;47337;54.068;12.114;2023-05-23T12:39:28;101003.66;;;14.44;100.00
61472;BME280;47337;54.068;12.114;2023-05-23T12:41:54;101013.31;;;14.34;100.00
61472;BME280;47337;54.068;12.114;2023-05-23T12:44:25;101027.44;;;14.27;100.00
61472;BME280;47337;54.068;12.114;2023-05-23T12:46:56;101024.81;;;14.19;100.00
61472;BME280;47337;54.068;12.114;2023-05-23T12:49:24;101037.97;;;14.00;100.00
61472;BME280;47337;54.068;12.114;2023-05-23T12:51:50;101037.09;;;13.95;100.00
61472;BME280;47337;54.068;12.114;2023-05-23T12:54:16;101047.63;;;13.88;100.00
61472;BME280;47337;54.068;12.114;2023-05-23T12:56:41;101052.03;;;13.80;100.00
61472;BME280;47337;54.068;12.114;2023-05-23T12:59:07;101050.28;;;13.82;100.00
61472;BME280;47337;54.068;12.114;2023-05-23T13:01:33;101056.41;;;13.69;100.00
61472;BME280;47337;54.068;12.114;2023-05-23T13:04:03;101051.97;;;13.56;100.00
61472;BME280;47337;54.068;12.114;2023-05-23T13:06:31;101053.75;;;13.63;100.00
61472;BME280;47337;54.068;12.114;2023-05-23T13:08:57;101066.03;;;13.49;100.00
61472;BME280;47337;54.068;12.114;2023-05-23T13:11:23;101067.78;;;13.44;100.00